Thompson Airport
CYTH : now visible

Aeroporto :











RITROVATECI SU...

 
LOGIN :

Iscrizione | Disclaimer

   EN    FR    IT 

 









Sommario :    VFR   VFR Marginale   IFR   IFR Intensivo   IFR Molto Intensivo
Visibilità : 
Base nubi : 
>= 8 km
>= 3000ft
5 / 8 km
1000 / 3000 ft
1500m / 5 km
500 / 1000 ft
800 / 1500m
200 / 500 ft
< 800m
< 200 ft
Simboli :   Temporali  Nebbia  Neve Forte  Precipitazioni Forti  Vento > 20 kt






- Altitudine del aeroporto : 729 ft
- Codice IATA : YTH


CYTH - Thompson

ULTIMO METAR :
  • 051200Z VRB02KT 15SM FEW072 BKN095 18/16 A2978 RMK AC2AC5 SLP090 DENSITY ALT 1400FT

METARs OBSOLETI :
  • 051100Z VRB02KT 15SM BKN110 17/16 A2978 RMK AC7 SLP090 DENSITY ALT 1400FT
  • 051045Z 19003KT 15SM BKN100 17/16 A2979 RMK AC7 SLP091 DENSITY ALT 1400FT
  • 051010Z 20002KT 15SM -SHRA FEW055 BKN089 OVC120 17/16 A2979 RMK SC2AC5AC1 CVCTV CLD EMBD SLP091 DENSITY ALT 1400FT

TAF TAF CYTH
Valido dal 05 a 13 ore il 06 a 01 ore UTC


051238Z 0513/0601 VRB03KT P6SM SCT040 BKN080
TEMPO 0513/0518 P6SM -SHRA BKN040 OVC080
BECMG 0513/0515 28008KT
FM051800 28008KT P6SM SCT040 RMK NXT FCST BY 051900Z
FIR CZWG / America del Nord



MetMap, La meteo Aeronautica in un colpo d'occhio ! - Copyright ORBIFLY Dicembre 2007 - Disclaimer

ORBIFLY MET'MAP TEAM :

Programmazione e sviluppo : Alexandra Zaïnal
Concezione : Baudouin d'Aumeries
Aiuto per la programmazione : Marc-Olivier Méhu
Supporto tecnico e logistico : Manuel Goepfert
Aiuto per la traduzione : Arnaldo La Scala

Contatto : metmap@orbifly.com




FONTI E CREDITI :

   NOAA       Earth
Advisory